createdAt,value
2019-02-19T00:00:22.663Z,13.00
2019-02-19T00:01:22.659Z,16.30
2019-02-19T00:02:22.665Z,15.10
2019-02-19T00:03:22.688Z,16.20
2019-02-19T00:04:22.685Z,14.10
2019-02-19T00:05:22.685Z,13.00
2019-02-19T00:06:22.691Z,12.00
2019-02-19T00:07:22.691Z,13.20
2019-02-19T00:08:22.706Z,13.90
2019-02-19T00:09:22.710Z,14.30
2019-02-19T00:10:22.716Z,14.70
2019-02-19T00:11:22.721Z,14.30
2019-02-19T00:12:22.733Z,16.20
2019-02-19T00:13:22.733Z,13.30
2019-02-19T00:14:22.747Z,13.30
2019-02-19T00:15:22.746Z,14.40
2019-02-19T00:16:22.756Z,11.80
2019-02-19T00:17:22.758Z,13.40
2019-02-19T00:18:22.762Z,12.00
2019-02-19T00:19:22.772Z,12.40
2019-02-19T00:20:22.771Z,11.60
2019-02-19T00:21:22.781Z,11.10
2019-02-19T00:22:22.784Z,13.10
2019-02-19T00:23:22.806Z,13.00
2019-02-19T00:24:22.797Z,14.40
2019-02-19T00:25:22.803Z,13.90
2019-02-19T00:26:22.813Z,10.40
2019-02-19T00:27:22.819Z,11.90
2019-02-19T00:28:22.816Z,12.00
2019-02-19T00:29:22.829Z,13.90
2019-02-19T00:30:22.829Z,12.20
2019-02-19T00:31:22.836Z,12.90
2019-02-19T00:32:22.844Z,13.50
2019-02-19T00:33:22.850Z,12.20
2019-02-19T00:34:22.854Z,14.20
2019-02-19T00:35:22.893Z,14.00
2019-02-19T00:36:22.862Z,15.20
2019-02-19T00:37:22.872Z,11.60
2019-02-19T00:38:22.879Z,13.00
2019-02-19T00:39:22.883Z,13.80
2019-02-19T00:40:22.892Z,11.10
2019-02-19T00:41:22.891Z,16.30
2019-02-19T00:42:22.901Z,15.50
2019-02-19T00:43:22.912Z,13.40
2019-02-19T00:44:22.910Z,12.70
2019-02-19T00:45:22.914Z,10.60
2019-02-19T00:46:22.926Z,13.80
2019-02-19T00:47:22.933Z,12.30
2019-02-19T00:48:22.933Z,11.10
2019-02-19T00:49:22.936Z,13.50
2019-02-19T00:50:22.939Z,13.80
2019-02-19T00:51:22.953Z,15.40
2019-02-19T00:52:22.958Z,13.90
2019-02-19T00:53:22.968Z,11.20
2019-02-19T00:54:22.971Z,12.50
2019-02-19T00:55:22.978Z,12.50
2019-02-19T00:56:22.978Z,16.20
2019-02-19T00:57:22.988Z,13.50
2019-02-19T00:58:22.990Z,12.00
2019-02-19T00:59:23.000Z,12.00
2019-02-19T01:00:23.010Z,13.30
2019-02-19T01:01:23.003Z,12.50
2019-02-19T01:02:23.014Z,12.60
2019-02-19T01:03:23.450Z,14.30
2019-02-19T01:04:23.045Z,13.20
2019-02-19T01:05:23.035Z,12.70
2019-02-19T01:06:23.035Z,11.30
2019-02-19T01:07:23.042Z,11.70
2019-02-19T01:08:23.049Z,11.30
2019-02-19T01:09:23.051Z,12.00
2019-02-19T01:10:23.061Z,12.40
2019-02-19T01:11:23.065Z,14.70
2019-02-19T01:12:23.068Z,12.00
2019-02-19T01:13:23.074Z,13.90
2019-02-19T01:14:23.083Z,15.00
2019-02-19T01:15:25.440Z,12.10
2019-02-19T01:16:23.090Z,12.00
2019-02-19T01:17:23.096Z,11.10
2019-02-19T01:18:23.106Z,12.40
2019-02-19T01:19:23.228Z,13.50
2019-02-19T01:20:23.113Z,12.70
2019-02-19T01:21:23.125Z,13.30
2019-02-19T01:22:23.129Z,13.60
2019-02-19T01:23:23.135Z,13.40
2019-02-19T01:24:23.147Z,13.90
2019-02-19T01:25:23.141Z,14.60
2019-02-19T01:26:23.181Z,12.90
2019-02-19T01:27:23.158Z,13.10
2019-02-19T01:28:23.162Z,13.20
2019-02-19T01:29:23.164Z,13.60
2019-02-19T01:30:23.170Z,12.40
2019-02-19T01:31:23.173Z,15.60
2019-02-19T01:32:23.187Z,13.70
2019-02-19T01:33:23.195Z,13.80
2019-02-19T01:34:23.190Z,14.00
2019-02-19T01:35:23.197Z,11.80
2019-02-19T01:36:23.202Z,13.60
2019-02-19T01:37:23.211Z,16.50
2019-02-19T01:38:23.221Z,13.50
2019-02-19T01:39:23.233Z,14.30
2019-02-19T01:40:23.231Z,14.60
2019-02-19T01:41:23.237Z,14.30
2019-02-19T01:42:23.237Z,13.40
2019-02-19T01:43:23.246Z,12.30
2019-02-19T01:44:23.258Z,13.30
2019-02-19T01:45:23.251Z,19.20
2019-02-19T01:46:23.261Z,15.80
2019-02-19T01:47:24.986Z,11.60
2019-02-19T01:48:23.270Z,14.80
2019-02-19T01:49:23.276Z,14.50
2019-02-19T01:50:23.279Z,12.00
2019-02-19T01:51:23.286Z,12.50
2019-02-19T01:52:23.295Z,12.00
2019-02-19T01:53:23.301Z,13.10
2019-02-19T01:54:23.306Z,12.10
2019-02-19T01:55:23.306Z,10.20
2019-02-19T01:56:23.312Z,16.00
2019-02-19T01:57:23.321Z,10.70
2019-02-19T01:58:23.321Z,12.80
2019-02-19T01:59:23.327Z,14.50
2019-02-19T02:00:23.334Z,14.80
2019-02-19T02:01:23.341Z,15.90
2019-02-19T02:02:23.349Z,12.80
2019-02-19T02:03:23.350Z,11.70
2019-02-19T02:04:23.359Z,12.90
2019-02-19T02:05:23.363Z,11.90
2019-02-19T02:06:23.370Z,15.60
2019-02-19T02:07:23.378Z,14.10
2019-02-19T02:08:23.369Z,12.80
2019-02-19T02:09:23.372Z,13.60
2019-02-19T02:10:23.387Z,12.90
2019-02-19T02:11:23.397Z,14.10
2019-02-19T02:12:23.398Z,13.50
2019-02-19T02:13:23.407Z,14.30
2019-02-19T02:14:23.411Z,15.60
2019-02-19T02:15:23.417Z,15.10
2019-02-19T02:16:23.426Z,12.50
2019-02-19T02:17:23.430Z,21.10
2019-02-19T02:18:23.446Z,13.70
2019-02-19T02:19:23.453Z,11.30
2019-02-19T02:20:23.443Z,17.30
2019-02-19T02:21:23.446Z,14.30
2019-02-19T02:22:23.455Z,11.70
2019-02-19T02:23:23.466Z,13.70
2019-02-19T02:24:23.472Z,14.80
2019-02-19T02:25:23.479Z,18.00
2019-02-19T02:26:23.485Z,14.90
2019-02-19T02:27:23.478Z,14.00
2019-02-19T02:28:23.485Z,14.40
2019-02-19T02:29:23.497Z,14.50
2019-02-19T02:30:23.495Z,15.70
2019-02-19T02:31:23.501Z,15.50
2019-02-19T02:32:23.509Z,16.10
2019-02-19T02:33:23.525Z,14.90
2019-02-19T02:34:23.548Z,14.80
2019-02-19T02:35:23.618Z,14.40
2019-02-19T02:36:23.704Z,16.00
2019-02-19T02:37:23.679Z,15.80
2019-02-19T02:38:23.549Z,16.30
2019-02-19T02:39:23.574Z,16.30
2019-02-19T02:40:23.653Z,16.00
2019-02-19T02:41:23.713Z,17.10
2019-02-19T02:42:23.649Z,15.20
2019-02-19T02:43:23.575Z,15.90
2019-02-19T02:44:23.577Z,21.10
2019-02-19T02:45:23.582Z,18.20
2019-02-19T02:46:23.586Z,16.10
2019-02-19T02:47:23.596Z,18.10
2019-02-19T02:48:23.594Z,17.60
2019-02-19T02:49:23.600Z,16.30
2019-02-19T02:50:23.611Z,15.60
2019-02-19T02:51:23.619Z,16.60
2019-02-19T02:52:23.619Z,17.20
2019-02-19T02:53:23.623Z,19.00
2019-02-19T02:54:23.629Z,20.10
2019-02-19T02:55:23.635Z,20.80
2019-02-19T02:56:23.643Z,24.00
2019-02-19T02:57:23.650Z,22.20
2019-02-19T02:58:23.652Z,19.70
2019-02-19T02:59:23.650Z,18.70
2019-02-19T03:00:23.672Z,22.40
2019-02-19T03:01:23.690Z,21.90
2019-02-19T03:02:23.672Z,22.80
2019-02-19T03:03:23.669Z,19.70
2019-02-19T03:04:23.681Z,21.40
2019-02-19T03:05:25.389Z,20.10
2019-02-19T03:06:23.688Z,22.50
2019-02-19T03:07:23.704Z,22.10
2019-02-19T03:08:23.704Z,22.60
2019-02-19T03:09:23.712Z,22.10
2019-02-19T03:10:23.714Z,26.60
2019-02-19T03:11:23.720Z,25.10
2019-02-19T03:12:23.731Z,23.10
2019-02-19T03:13:23.729Z,22.40
2019-02-19T03:14:23.737Z,23.20
2019-02-19T03:15:23.742Z,25.40
2019-02-19T03:16:23.745Z,26.00
2019-02-19T03:17:23.755Z,25.90
2019-02-19T03:18:23.758Z,26.00
2019-02-19T03:19:23.768Z,25.50
2019-02-19T03:20:23.768Z,27.30
2019-02-19T03:21:23.777Z,27.10
2019-02-19T03:22:23.788Z,29.90
2019-02-19T03:23:23.789Z,33.00
2019-02-19T03:24:23.790Z,30.90
2019-02-19T03:25:23.796Z,25.60
2019-02-19T03:26:23.803Z,27.20
2019-02-19T03:27:23.809Z,27.70
2019-02-19T03:28:23.822Z,27.80
2019-02-19T03:29:23.824Z,28.20
2019-02-19T03:30:23.823Z,26.30
2019-02-19T03:31:23.841Z,28.50
2019-02-19T03:32:23.849Z,27.30
2019-02-19T03:33:23.839Z,26.40
2019-02-19T03:34:23.846Z,29.30
2019-02-19T03:35:23.847Z,27.20
2019-02-19T03:36:23.867Z,31.80
2019-02-19T03:37:23.866Z,30.10
2019-02-19T03:38:23.866Z,29.50
2019-02-19T03:39:23.882Z,30.70
2019-02-19T03:40:23.875Z,29.50
2019-02-19T03:41:23.884Z,30.70
2019-02-19T03:42:23.895Z,31.70
2019-02-19T03:43:23.893Z,35.90
2019-02-19T03:44:23.905Z,32.40
2019-02-19T03:45:23.904Z,32.70
2019-02-19T03:46:23.914Z,29.90
2019-02-19T03:47:23.913Z,31.40
2019-02-19T03:48:23.947Z,33.90
2019-02-19T03:49:23.929Z,29.90
2019-02-19T03:50:23.930Z,33.50
2019-02-19T03:51:23.936Z,31.70
2019-02-19T03:52:23.949Z,31.10
2019-02-19T03:53:23.946Z,29.60
2019-02-19T03:54:23.958Z,32.10
2019-02-19T03:55:23.959Z,32.70
2019-02-19T03:56:23.962Z,30.40
2019-02-19T03:57:23.968Z,32.90
2019-02-19T03:58:23.971Z,33.30
2019-02-19T03:59:23.981Z,32.40
2019-02-19T04:00:23.984Z,33.30
2019-02-19T04:01:24.010Z,31.40
2019-02-19T04:02:24.003Z,33.80
2019-02-19T04:03:24.008Z,36.20
2019-02-19T04:04:24.018Z,35.00
2019-02-19T04:05:24.021Z,36.60
2019-02-19T04:06:24.020Z,37.50
2019-02-19T04:07:24.025Z,36.50
2019-02-19T04:08:24.026Z,36.70
2019-02-19T04:09:24.035Z,31.60
2019-02-19T04:10:24.028Z,33.90
2019-02-19T04:11:24.046Z,41.50
2019-02-19T04:12:24.046Z,39.10
2019-02-19T04:13:24.054Z,34.20
2019-02-19T04:14:24.055Z,39.10
2019-02-19T04:15:24.065Z,35.30
2019-02-19T04:16:24.074Z,33.90
2019-02-19T04:17:24.075Z,35.20
2019-02-19T04:18:24.084Z,36.10
2019-02-19T04:19:24.085Z,38.00
2019-02-19T04:20:24.095Z,34.30
2019-02-19T04:21:24.101Z,33.50
2019-02-19T04:22:24.100Z,36.30
2019-02-19T04:23:24.107Z,34.30
2019-02-19T04:24:24.110Z,33.60
2019-02-19T04:25:24.117Z,33.80
2019-02-19T04:26:24.123Z,31.80
2019-02-19T04:27:24.130Z,35.60
2019-02-19T04:28:24.136Z,35.30
2019-02-19T04:29:24.143Z,33.80
2019-02-19T04:30:24.146Z,35.20
2019-02-19T04:31:24.150Z,36.10
2019-02-19T04:32:24.153Z,36.80
2019-02-19T04:33:24.158Z,39.40
2019-02-19T04:34:24.164Z,34.10
2019-02-19T04:35:24.169Z,35.70
2019-02-19T04:36:24.174Z,36.70
2019-02-19T04:37:24.177Z,34.90
2019-02-19T04:38:24.184Z,35.40
2019-02-19T04:39:24.187Z,36.10
2019-02-19T04:40:24.194Z,36.50
2019-02-19T04:41:24.201Z,39.60
2019-02-19T04:42:24.207Z,35.10
2019-02-19T04:43:24.210Z,35.70
2019-02-19T04:44:24.217Z,37.10
2019-02-19T04:45:24.219Z,32.70
2019-02-19T04:46:31.146Z,36.30
2019-02-19T04:47:24.232Z,34.90
2019-02-19T04:48:24.234Z,37.50
2019-02-19T04:49:24.241Z,33.40
2019-02-19T04:50:24.247Z,33.00
2019-02-19T04:51:24.250Z,40.00
2019-02-19T04:52:24.259Z,34.30
2019-02-19T04:53:24.263Z,34.30
2019-02-19T04:54:24.283Z,31.90
2019-02-19T04:55:24.282Z,31.00
2019-02-19T04:56:24.276Z,35.40
2019-02-19T04:57:24.285Z,33.90
2019-02-19T04:58:24.289Z,36.30
2019-02-19T04:59:24.293Z,36.50
2019-02-19T05:00:24.299Z,32.10
2019-02-19T05:01:24.304Z,32.20
2019-02-19T05:02:24.311Z,33.10
2019-02-19T05:03:24.312Z,33.10
2019-02-19T05:04:24.317Z,32.30
2019-02-19T05:05:24.332Z,34.80
2019-02-19T05:06:24.330Z,32.30
2019-02-19T05:07:24.334Z,32.50
2019-02-19T05:08:24.344Z,35.50
2019-02-19T05:09:24.356Z,31.20
2019-02-19T05:10:24.352Z,32.30
2019-02-19T05:11:24.359Z,32.00
2019-02-19T05:12:24.396Z,29.00
2019-02-19T05:13:24.369Z,32.10
2019-02-19T05:14:24.373Z,33.20
2019-02-19T05:15:24.378Z,29.20
2019-02-19T05:16:24.385Z,33.00
2019-02-19T05:17:24.391Z,32.80
2019-02-19T05:18:24.402Z,30.60
2019-02-19T05:19:24.394Z,27.40
2019-02-19T05:20:24.404Z,31.60
2019-02-19T05:21:24.407Z,28.60
2019-02-19T05:22:24.411Z,30.40
2019-02-19T05:23:24.418Z,31.30
2019-02-19T05:24:24.427Z,30.70
2019-02-19T05:25:24.431Z,27.60
2019-02-19T05:26:24.429Z,29.30
2019-02-19T05:27:24.438Z,27.50
2019-02-19T05:28:24.454Z,27.00
2019-02-19T05:29:24.454Z,26.00
2019-02-19T05:30:24.454Z,27.70
2019-02-19T05:31:24.457Z,28.70
2019-02-19T05:32:24.454Z,31.70
2019-02-19T05:33:24.465Z,27.50
2019-02-19T05:34:24.473Z,26.20
2019-02-19T05:35:24.476Z,26.20
2019-02-19T05:36:24.484Z,29.40
2019-02-19T05:37:24.492Z,30.50
2019-02-19T05:38:24.496Z,27.30
2019-02-19T05:39:24.513Z,29.40
2019-02-19T05:40:24.514Z,30.80
2019-02-19T05:41:24.509Z,33.20
2019-02-19T05:42:24.515Z,27.60
2019-02-19T05:43:24.519Z,25.70
2019-02-19T05:44:24.534Z,28.20
2019-02-19T05:45:24.535Z,27.00
2019-02-19T05:46:24.531Z,26.20
2019-02-19T05:47:24.537Z,32.70
2019-02-19T05:48:24.547Z,30.70
2019-02-19T05:49:24.549Z,30.00
2019-02-19T05:50:24.557Z,29.20
2019-02-19T05:51:24.562Z,30.40
2019-02-19T05:52:24.559Z,33.70
2019-02-19T05:53:24.570Z,33.20
2019-02-19T05:54:24.572Z,31.30
2019-02-19T05:55:24.579Z,33.20
2019-02-19T05:56:24.585Z,32.10
2019-02-19T05:57:24.593Z,33.00
2019-02-19T05:58:24.598Z,32.60
2019-02-19T05:59:24.598Z,30.70
2019-02-19T06:00:24.615Z,31.60
2019-02-19T06:01:24.609Z,34.10
2019-02-19T06:02:24.617Z,28.20
2019-02-19T06:03:24.621Z,29.50
2019-02-19T06:04:24.627Z,32.70
2019-02-19T06:05:24.631Z,30.70
2019-02-19T06:06:24.633Z,31.60
2019-02-19T06:07:24.649Z,28.70
2019-02-19T06:08:24.642Z,33.80
2019-02-19T06:09:24.652Z,30.90
2019-02-19T06:10:24.656Z,33.00
2019-02-19T06:11:24.663Z,31.60
2019-02-19T06:12:24.665Z,29.10
2019-02-19T06:13:24.671Z,31.30
2019-02-19T06:14:24.677Z,33.20
2019-02-19T06:15:24.678Z,32.70
2019-02-19T06:16:24.690Z,36.10
2019-02-19T06:17:24.688Z,35.40
2019-02-19T06:18:24.694Z,30.20
2019-02-19T06:19:24.697Z,31.20
2019-02-19T06:20:24.752Z,32.40
2019-02-19T06:21:24.706Z,28.60
2019-02-19T06:22:24.713Z,33.30
2019-02-19T06:23:24.726Z,34.10
2019-02-19T06:24:24.724Z,32.10
2019-02-19T06:25:24.734Z,33.40
2019-02-19T06:26:24.733Z,31.60
2019-02-19T06:27:24.739Z,33.30
2019-02-19T06:28:24.745Z,34.20
2019-02-19T06:29:24.750Z,31.00
2019-02-19T06:30:24.754Z,33.80
2019-02-19T06:31:24.757Z,32.00
2019-02-19T06:32:24.767Z,33.50
2019-02-19T06:33:24.768Z,33.00
2019-02-19T06:34:24.772Z,33.10
2019-02-19T06:35:24.784Z,33.40
2019-02-19T06:36:24.786Z,36.00
2019-02-19T06:37:24.792Z,32.50
2019-02-19T06:38:24.796Z,34.00
2019-02-19T06:39:24.809Z,35.10
2019-02-19T06:40:24.804Z,34.60
2019-02-19T06:41:24.809Z,38.70
2019-02-19T06:42:24.830Z,36.30
2019-02-19T06:43:24.823Z,32.50
2019-02-19T06:44:24.825Z,34.60
2019-02-19T06:45:24.841Z,33.40
2019-02-19T06:46:24.857Z,36.10
2019-02-19T06:47:24.845Z,30.40
2019-02-19T06:48:24.847Z,38.90
2019-02-19T06:49:24.853Z,30.70
2019-02-19T06:50:24.853Z,35.90
2019-02-19T06:51:24.863Z,35.80
2019-02-19T06:52:24.872Z,35.10
2019-02-19T06:53:24.872Z,34.20
2019-02-19T06:54:24.881Z,34.60
2019-02-19T06:55:24.879Z,34.10
2019-02-19T06:56:24.895Z,35.80
2019-02-19T06:57:24.895Z,33.10
2019-02-19T06:58:24.896Z,30.70
2019-02-19T06:59:24.901Z,33.60
2019-02-19T07:00:24.924Z,33.80
2019-02-19T07:01:24.911Z,31.80
2019-02-19T07:02:24.908Z,39.60
2019-02-19T07:03:24.926Z,31.50
2019-02-19T07:05:24.930Z,34.90
2019-02-19T07:06:24.937Z,35.50
2019-02-19T07:07:24.940Z,36.40
2019-02-19T07:08:24.952Z,31.20
2019-02-19T07:09:24.957Z,33.40
2019-02-19T07:10:24.971Z,31.80
2019-02-19T07:11:24.966Z,35.50
2019-02-19T07:12:24.972Z,33.10
2019-02-19T07:13:24.972Z,34.20
2019-02-19T07:14:24.975Z,32.80
2019-02-19T07:15:24.983Z,34.60
2019-02-19T07:16:24.988Z,35.70
2019-02-19T07:17:24.997Z,32.60
2019-02-19T07:18:24.997Z,30.70
2019-02-19T07:19:25.014Z,33.70
2019-02-19T07:20:25.023Z,32.40
2019-02-19T07:21:25.017Z,34.50
2019-02-19T07:22:25.017Z,31.40
2019-02-19T07:23:25.033Z,34.10
2019-02-19T07:24:25.039Z,35.30
2019-02-19T07:25:25.036Z,30.00
2019-02-19T07:26:25.044Z,33.00
2019-02-19T07:27:25.045Z,33.30
2019-02-19T07:28:25.048Z,31.80
2019-02-19T07:29:25.055Z,28.90
2019-02-19T07:30:25.061Z,30.50
2019-02-19T07:31:25.061Z,32.00
2019-02-19T07:32:25.080Z,30.20
2019-02-19T07:33:25.081Z,33.70
2019-02-19T07:34:25.083Z,35.20
2019-02-19T07:35:25.090Z,31.80
2019-02-19T07:36:25.107Z,35.30
2019-02-19T07:37:25.096Z,35.90
2019-02-19T07:38:25.103Z,36.70
2019-02-19T07:39:25.110Z,35.90
2019-02-19T07:40:25.121Z,34.90
2019-02-19T07:41:25.125Z,32.60
2019-02-19T07:42:25.122Z,32.30
2019-02-19T07:43:25.129Z,36.20
2019-02-19T07:44:25.151Z,35.50
2019-02-19T07:45:25.148Z,37.60
2019-02-19T07:46:25.144Z,35.60
2019-02-19T07:47:25.147Z,33.20
2019-02-19T07:48:25.154Z,32.00
2019-02-19T07:49:25.166Z,32.60
2019-02-19T07:50:25.164Z,29.20
2019-02-19T07:51:25.176Z,34.10
2019-02-19T07:52:25.182Z,34.40
2019-02-19T07:53:25.183Z,34.80
2019-02-19T07:54:25.186Z,32.80
2019-02-19T07:55:25.204Z,33.90
2019-02-19T07:56:25.201Z,38.20
2019-02-19T07:57:25.202Z,26.40
2019-02-19T07:58:25.208Z,40.20
2019-02-19T07:59:25.224Z,33.20
2019-02-19T08:00:25.228Z,31.20
2019-02-19T08:01:25.224Z,38.70
2019-02-19T08:02:25.238Z,34.30
2019-02-19T08:03:25.234Z,35.40
2019-02-19T08:04:25.258Z,35.30
2019-02-19T08:05:25.250Z,31.90
2019-02-19T08:06:25.256Z,33.90
2019-02-19T08:07:25.264Z,31.60
2019-02-19T08:08:25.261Z,33.00
2019-02-19T08:09:25.268Z,29.20
2019-02-19T08:10:25.280Z,29.60
2019-02-19T08:11:25.291Z,33.10
2019-02-19T08:12:26.317Z,33.60
2019-02-19T08:13:25.293Z,30.60
2019-02-19T08:14:25.298Z,30.50
2019-02-19T08:15:25.301Z,33.60
2019-02-19T08:16:25.303Z,34.00
2019-02-19T08:17:32.857Z,28.80
2019-02-19T08:18:25.368Z,28.30
2019-02-19T08:19:25.312Z,34.10
2019-02-19T08:20:25.325Z,28.20
2019-02-19T08:21:25.331Z,30.10
2019-02-19T08:22:25.340Z,32.30
2019-02-19T08:23:25.341Z,29.90
2019-02-19T08:24:25.341Z,31.40
2019-02-19T08:25:25.354Z,34.20
2019-02-19T08:26:25.351Z,29.40
2019-02-19T08:27:25.357Z,26.30
2019-02-19T08:28:25.363Z,34.20
2019-02-19T08:29:25.370Z,30.70
2019-02-19T08:30:25.376Z,28.30
2019-02-19T08:31:25.383Z,30.40
2019-02-19T08:32:25.389Z,31.90
2019-02-19T08:33:25.392Z,27.00
2019-02-19T08:34:25.395Z,29.30
2019-02-19T08:35:25.399Z,29.30
2019-02-19T08:36:25.408Z,27.20
2019-02-19T08:37:25.433Z,31.10
2019-02-19T08:38:25.415Z,24.50
2019-02-19T08:39:25.442Z,25.80
2019-02-19T08:40:25.432Z,30.60
2019-02-19T08:41:25.431Z,29.60
2019-02-19T08:42:25.437Z,28.10
2019-02-19T08:43:25.456Z,25.40
2019-02-19T08:44:25.477Z,26.90
2019-02-19T08:45:25.463Z,31.20
2019-02-19T08:46:25.473Z,27.40
2019-02-19T08:47:25.472Z,28.30
2019-02-19T08:48:25.479Z,25.50
2019-02-19T08:49:25.544Z,26.60
2019-02-19T08:50:25.486Z,30.40
2019-02-19T08:51:25.488Z,25.80
2019-02-19T08:52:25.495Z,23.00
2019-02-19T08:53:25.505Z,20.60
2019-02-19T08:54:25.508Z,28.30
2019-02-19T08:55:25.511Z,25.50
2019-02-19T08:56:25.518Z,26.10
2019-02-19T08:57:25.525Z,21.30
2019-02-19T08:58:25.531Z,28.50
2019-02-19T08:59:25.537Z,26.00
2019-02-19T09:00:25.545Z,22.70
2019-02-19T09:01:25.550Z,25.00
2019-02-19T09:02:25.556Z,25.70
2019-02-19T09:03:25.562Z,24.60
2019-02-19T09:04:25.563Z,20.80
2019-02-19T09:05:25.575Z,24.70
2019-02-19T09:06:27.475Z,25.20
2019-02-19T09:07:25.588Z,25.60
2019-02-19T09:08:25.592Z,28.00
2019-02-19T09:09:25.612Z,21.80
2019-02-19T09:10:25.611Z,25.40
2019-02-19T09:11:25.610Z,20.40
2019-02-19T09:12:25.633Z,21.50
2019-02-19T09:13:25.630Z,23.80
2019-02-19T09:14:25.636Z,25.30
2019-02-19T09:15:25.647Z,26.00
2019-02-19T09:16:25.662Z,24.60
2019-02-19T09:17:25.660Z,20.70
2019-02-19T09:18:25.665Z,28.80
2019-02-19T09:19:25.676Z,21.10
2019-02-19T09:20:25.681Z,22.70
2019-02-19T09:21:25.687Z,25.30
2019-02-19T09:22:25.708Z,23.00
2019-02-19T09:23:25.708Z,22.90
2019-02-19T09:24:25.710Z,21.10
2019-02-19T09:25:25.720Z,20.70
2019-02-19T09:26:25.726Z,21.60
2019-02-19T09:27:25.733Z,24.80
2019-02-19T09:28:25.742Z,21.70
2019-02-19T09:29:25.749Z,24.20
2019-02-19T09:30:25.758Z,19.30
2019-02-19T09:31:25.775Z,19.40
2019-02-19T09:32:25.783Z,19.50
2019-02-19T09:33:25.787Z,21.10
2019-02-19T09:34:25.794Z,24.80
2019-02-19T09:35:25.801Z,19.70
2019-02-19T09:36:25.809Z,21.90
2019-02-19T09:37:25.822Z,23.50
2019-02-19T09:38:25.834Z,21.50
2019-02-19T09:39:25.859Z,24.80
2019-02-19T09:40:25.847Z,25.10
2019-02-19T09:41:25.867Z,22.40
2019-02-19T09:42:25.869Z,24.60
2019-02-19T09:43:25.874Z,23.10
2019-02-19T09:44:25.884Z,21.60
2019-02-19T09:45:25.903Z,18.80
2019-02-19T09:46:25.913Z,20.70
2019-02-19T09:47:25.919Z,26.00
2019-02-19T09:48:25.918Z,25.70
2019-02-19T09:49:25.928Z,21.90
2019-02-19T09:50:25.935Z,22.90
2019-02-19T09:51:25.942Z,22.80
2019-02-19T09:52:25.954Z,21.70
2019-02-19T09:53:25.964Z,26.70
2019-02-19T09:54:25.977Z,24.10
2019-02-19T09:55:25.988Z,18.40
2019-02-19T09:56:25.993Z,26.10
2019-02-19T09:57:26.004Z,20.10
2019-02-19T09:58:26.012Z,23.20
2019-02-19T09:59:26.021Z,20.20
2019-02-19T10:00:26.031Z,21.80
2019-02-19T10:01:28.083Z,22.10
2019-02-19T10:02:26.048Z,28.40
2019-02-19T10:03:26.058Z,25.10
2019-02-19T10:04:26.071Z,27.40
2019-02-19T10:05:26.077Z,19.30
2019-02-19T10:06:26.087Z,22.00
2019-02-19T10:07:26.092Z,24.40
2019-02-19T10:08:26.103Z,19.80
2019-02-19T10:09:26.112Z,21.50
2019-02-19T10:10:26.125Z,24.40
2019-02-19T10:11:26.134Z,20.90
2019-02-19T10:12:26.140Z,24.20
2019-02-19T10:13:26.153Z,19.20
2019-02-19T10:14:26.163Z,19.90
2019-02-19T10:15:26.209Z,17.20
2019-02-19T10:16:26.179Z,18.50
2019-02-19T10:17:26.189Z,19.40
2019-02-19T10:18:26.202Z,23.50
2019-02-19T10:19:26.210Z,21.30
2019-02-19T10:20:26.221Z,20.00
2019-02-19T10:21:26.234Z,19.60
2019-02-19T10:22:26.238Z,17.60
2019-02-19T10:23:26.245Z,22.00
2019-02-19T10:24:26.254Z,21.30
2019-02-19T10:25:26.265Z,18.60
2019-02-19T10:26:26.283Z,26.60
2019-02-19T10:27:26.283Z,23.10
2019-02-19T10:28:26.292Z,17.10
2019-02-19T10:29:26.302Z,21.70
2019-02-19T10:30:26.316Z,17.00
2019-02-19T10:31:26.318Z,21.50
2019-02-19T10:32:26.378Z,21.20
2019-02-19T10:33:26.352Z,17.70
2019-02-19T10:34:26.350Z,16.30
2019-02-19T10:35:26.366Z,17.80
2019-02-19T10:36:26.369Z,17.30
2019-02-19T10:37:26.376Z,17.20
2019-02-19T10:38:26.389Z,18.00
2019-02-19T10:39:26.391Z,18.10
2019-02-19T10:40:26.402Z,14.90
2019-02-19T10:41:26.413Z,19.70
2019-02-19T10:42:26.421Z,16.20
2019-02-19T10:43:26.431Z,16.00
2019-02-19T10:44:26.442Z,16.50
2019-02-19T10:45:26.461Z,15.60
2019-02-19T10:46:26.477Z,13.70
2019-02-19T10:47:26.486Z,16.30
2019-02-19T10:48:26.492Z,13.10
2019-02-19T10:49:26.501Z,13.60
2019-02-19T10:50:26.524Z,10.20
2019-02-19T10:51:26.527Z,14.40
2019-02-19T10:52:26.540Z,13.10
2019-02-19T10:53:26.553Z,16.90
2019-02-19T10:54:26.566Z,14.30
2019-02-19T10:55:26.578Z,17.80
2019-02-19T10:56:26.597Z,15.80
2019-02-19T10:57:26.604Z,15.00
2019-02-19T10:58:26.617Z,12.30
2019-02-19T10:59:26.630Z,15.80
2019-02-19T11:00:26.636Z,14.80
2019-02-19T11:01:26.650Z,17.20
2019-02-19T11:02:26.664Z,11.80
2019-02-19T11:03:26.677Z,16.00
2019-02-19T11:04:26.683Z,18.70
2019-02-19T11:05:26.694Z,23.00
2019-02-19T11:06:26.706Z,15.40
2019-02-19T11:07:26.718Z,12.80
2019-02-19T11:08:26.725Z,15.30
2019-02-19T11:09:26.748Z,14.30
2019-02-19T11:10:26.741Z,21.40
2019-02-19T11:11:26.762Z,16.90
2019-02-19T11:12:26.763Z,17.20
2019-02-19T11:13:26.769Z,18.80
2019-02-19T11:14:26.774Z,18.10
2019-02-19T11:15:26.800Z,13.90
2019-02-19T11:16:26.789Z,16.50
2019-02-19T11:17:26.841Z,17.00
2019-02-19T11:18:28.769Z,17.70
2019-02-19T11:19:26.824Z,16.50
2019-02-19T11:20:26.830Z,16.10
2019-02-19T11:21:26.852Z,15.00
2019-02-19T11:22:26.849Z,13.60
2019-02-19T11:23:26.868Z,13.80
2019-02-19T11:24:26.877Z,17.30
2019-02-19T11:25:26.887Z,17.70
2019-02-19T11:26:26.887Z,15.10
2019-02-19T11:27:26.903Z,17.80
2019-02-19T11:28:26.900Z,19.40
2019-02-19T11:29:26.921Z,15.90
2019-02-19T11:30:26.929Z,15.70
2019-02-19T11:31:26.942Z,14.90
2019-02-19T11:32:26.954Z,20.80
2019-02-19T11:33:26.963Z,16.70
2019-02-19T11:34:26.970Z,15.50
2019-02-19T11:35:26.979Z,16.30
2019-02-19T11:36:26.990Z,14.30
2019-02-19T11:37:27.003Z,19.00
2019-02-19T11:38:27.008Z,12.60
2019-02-19T11:39:27.024Z,17.60
2019-02-19T11:40:27.031Z,19.70
2019-02-19T11:41:27.049Z,18.70
2019-02-19T11:42:27.050Z,13.60
2019-02-19T11:43:27.059Z,16.60
2019-02-19T11:44:27.086Z,12.70
2019-02-19T11:45:27.085Z,18.00
2019-02-19T11:46:27.108Z,12.60
2019-02-19T11:47:27.107Z,20.00
2019-02-19T11:48:27.117Z,16.60
2019-02-19T11:49:27.128Z,11.70
2019-02-19T11:50:27.136Z,12.90
2019-02-19T11:51:27.142Z,15.30
2019-02-19T11:52:27.158Z,20.10
2019-02-19T11:53:27.174Z,16.70
2019-02-19T11:54:27.181Z,20.10
2019-02-19T11:55:27.187Z,15.20
2019-02-19T11:56:27.200Z,14.50
2019-02-19T11:57:27.210Z,19.10
2019-02-19T11:58:27.223Z,13.10
2019-02-19T11:59:27.229Z,16.60
2019-02-19T12:00:27.236Z,17.20
2019-02-19T12:01:27.242Z,14.10
2019-02-19T12:02:32.727Z,15.90
2019-02-19T12:03:27.267Z,17.60
2019-02-19T12:04:27.277Z,13.80
2019-02-19T12:05:27.293Z,16.20
2019-02-19T12:06:27.290Z,12.40
2019-02-19T12:07:27.302Z,16.00
2019-02-19T12:08:27.309Z,15.30
2019-02-19T12:09:27.318Z,19.30
2019-02-19T12:10:27.329Z,15.10
2019-02-19T12:11:27.335Z,15.70
2019-02-19T12:12:27.345Z,11.90
2019-02-19T12:13:27.347Z,14.20
2019-02-19T12:14:27.365Z,12.60
2019-02-19T12:15:34.893Z,14.50
2019-02-19T12:16:27.376Z,14.30
2019-02-19T12:17:27.389Z,13.50
2019-02-19T12:18:27.399Z,13.30
2019-02-19T12:19:27.408Z,15.10
2019-02-19T12:20:27.417Z,15.00
2019-02-19T12:21:27.424Z,13.40
2019-02-19T12:22:27.437Z,16.80
2019-02-19T12:23:27.437Z,13.90
2019-02-19T12:24:27.447Z,11.80
2019-02-19T12:25:27.452Z,12.60
2019-02-19T12:26:27.465Z,13.20
2019-02-19T12:27:27.471Z,16.70
2019-02-19T12:28:27.484Z,14.80
2019-02-19T12:29:27.501Z,13.30
2019-02-19T12:30:27.508Z,12.90
2019-02-19T12:31:27.516Z,14.90
2019-02-19T12:32:27.526Z,16.60
2019-02-19T12:33:27.542Z,21.90
2019-02-19T12:34:27.545Z,15.80
2019-02-19T12:35:27.549Z,15.10
2019-02-19T12:36:27.564Z,16.80
2019-02-19T12:37:27.568Z,12.60
2019-02-19T12:38:27.570Z,10.30
2019-02-19T12:39:27.580Z,10.70
2019-02-19T12:40:27.593Z,13.90
2019-02-19T12:41:27.615Z,17.70
2019-02-19T12:42:27.606Z,17.50
2019-02-19T12:43:27.612Z,15.00
2019-02-19T12:44:27.625Z,16.90
2019-02-19T12:45:27.634Z,15.00
2019-02-19T12:46:27.635Z,14.10
2019-02-19T12:47:27.646Z,15.30
2019-02-19T12:48:27.656Z,16.70
2019-02-19T12:49:27.658Z,14.40
2019-02-19T12:50:27.665Z,15.70
2019-02-19T12:51:27.674Z,15.60
2019-02-19T12:52:27.687Z,16.40
2019-02-19T12:53:27.692Z,18.10